createdAt,value
2023-05-21T00:00:53.902Z,12.11
2023-05-21T00:03:22.120Z,12.13
2023-05-21T00:05:50.347Z,12.04
2023-05-21T00:08:18.304Z,12.11
2023-05-21T00:10:45.965Z,12.07
2023-05-21T00:13:13.772Z,12.12
2023-05-21T00:15:41.719Z,12.14
2023-05-21T00:18:09.336Z,12.06
2023-05-21T00:20:37.324Z,12.13
2023-05-21T00:23:05.370Z,12.14
2023-05-21T00:25:33.127Z,12.12
2023-05-21T00:28:01.130Z,12.14
2023-05-21T00:30:29.046Z,12.14
2023-05-21T00:32:58.926Z,12.17
2023-05-21T00:35:26.655Z,12.11
2023-05-21T00:37:54.510Z,12.19
2023-05-21T00:40:22.512Z,12.18
2023-05-21T00:42:50.261Z,12.11
2023-05-21T00:45:18.115Z,12.20
2023-05-21T00:47:48.636Z,12.19
2023-05-21T00:50:16.432Z,12.21
2023-05-21T00:52:45.874Z,12.23
2023-05-21T00:55:13.943Z,12.22
2023-05-21T00:57:42.914Z,12.21
2023-05-21T01:00:12.138Z,12.25
2023-05-21T01:02:39.886Z,12.25
2023-05-21T01:05:08.244Z,12.26
2023-05-21T01:07:39.119Z,12.28
2023-05-21T01:10:09.871Z,12.29
2023-05-21T01:12:41.866Z,12.31
2023-05-21T01:15:10.940Z,12.34
2023-05-21T01:17:39.252Z,12.32
2023-05-21T01:20:10.741Z,12.35
2023-05-21T01:22:43.717Z,12.30
2023-05-21T01:25:12.326Z,12.27
2023-05-21T01:27:39.945Z,12.30
2023-05-21T01:30:08.587Z,12.29
2023-05-21T01:32:42.372Z,12.39
2023-05-21T01:35:29.618Z,12.43
2023-05-21T01:38:14.708Z,12.41
2023-05-21T01:40:52.367Z,12.39
2023-05-21T01:43:22.774Z,12.37
2023-05-21T01:45:55.035Z,12.38
2023-05-21T01:48:25.571Z,12.39
2023-05-21T01:50:55.577Z,12.38
2023-05-21T01:53:23.892Z,12.38
2023-05-21T01:55:51.636Z,12.38
2023-05-21T01:58:19.757Z,12.37
2023-05-21T02:00:47.775Z,12.37
2023-05-21T02:03:15.481Z,12.38
2023-05-21T02:05:43.539Z,12.39
2023-05-21T02:08:11.388Z,12.34
2023-05-21T02:10:39.022Z,12.38
2023-05-21T02:13:06.746Z,12.47
2023-05-21T02:15:35.152Z,12.42
2023-05-21T02:18:04.021Z,12.41
2023-05-21T02:20:51.498Z,12.47
2023-05-21T02:23:19.092Z,12.39
2023-05-21T02:25:46.636Z,12.34
2023-05-21T02:28:14.388Z,12.42
2023-05-21T02:30:42.088Z,12.36
2023-05-21T02:33:09.827Z,12.35
2023-05-21T02:35:37.849Z,12.39
2023-05-21T02:38:05.585Z,12.44
2023-05-21T02:40:33.260Z,12.49
2023-05-21T02:43:01.097Z,12.51
2023-05-21T02:45:31.516Z,12.43
2023-05-21T02:47:59.774Z,12.46
2023-05-21T02:50:28.018Z,12.50
2023-05-21T02:52:59.911Z,12.55
2023-05-21T02:55:28.659Z,12.56
2023-05-21T02:57:56.658Z,12.61
2023-05-21T03:00:24.271Z,12.50
2023-05-21T03:02:51.865Z,12.57
2023-05-21T03:05:19.596Z,12.58
2023-05-21T03:07:47.163Z,12.60
2023-05-21T03:10:16.089Z,12.68
2023-05-21T03:12:43.670Z,12.70
2023-05-21T03:15:14.958Z,12.64
2023-05-21T03:17:44.667Z,12.73
2023-05-21T03:20:19.105Z,12.76
2023-05-21T03:22:48.350Z,12.72
2023-05-21T03:25:16.098Z,12.74
2023-05-21T03:27:44.666Z,12.72
2023-05-21T03:30:28.372Z,12.80
2023-05-21T03:33:23.053Z,12.85
2023-05-21T03:35:50.985Z,12.81
2023-05-21T03:38:18.631Z,12.93
2023-05-21T03:40:46.765Z,12.95
2023-05-21T03:43:14.411Z,12.88
2023-05-21T03:45:44.338Z,12.92
2023-05-21T03:48:30.666Z,12.97
2023-05-21T03:50:59.605Z,12.97
2023-05-21T03:53:27.217Z,13.00
2023-05-21T03:55:55.577Z,12.95
2023-05-21T03:58:25.147Z,13.01
2023-05-21T04:00:52.806Z,13.05
2023-05-21T04:03:21.371Z,12.93
2023-05-21T04:05:49.708Z,12.93
2023-05-21T04:08:18.103Z,12.93
2023-05-21T04:10:45.818Z,12.95
2023-05-21T04:13:13.408Z,12.95
2023-05-21T04:15:40.942Z,12.87
2023-05-21T04:18:08.853Z,12.85
2023-05-21T04:20:36.706Z,12.89
2023-05-21T04:23:04.836Z,12.76
2023-05-21T04:25:32.397Z,12.95
2023-05-21T04:28:00.594Z,12.97
2023-05-21T04:30:28.238Z,13.02
2023-05-21T04:32:58.198Z,13.11
2023-05-21T04:35:27.304Z,13.34
2023-05-21T04:37:55.110Z,13.46
2023-05-21T04:40:24.765Z,13.57
2023-05-21T04:42:52.322Z,13.52
2023-05-21T04:45:24.752Z,13.54
2023-05-21T04:47:53.918Z,13.44
2023-05-21T04:50:21.559Z,13.38
2023-05-21T04:52:49.394Z,13.37
2023-05-21T04:55:19.190Z,13.59
2023-05-21T04:57:48.315Z,13.57
2023-05-21T05:00:16.684Z,13.55
2023-05-21T05:02:46.523Z,13.56
2023-05-21T05:05:14.309Z,13.58
2023-05-21T05:07:42.714Z,13.57
2023-05-21T05:10:10.683Z,13.58
2023-05-21T05:12:38.289Z,13.62
2023-05-21T05:15:06.727Z,13.71
2023-05-21T05:17:34.552Z,13.73
2023-05-21T05:20:02.314Z,13.70
2023-05-21T05:22:32.550Z,13.67
2023-05-21T05:25:00.304Z,13.67
2023-05-21T05:27:28.072Z,13.57
2023-05-21T05:29:56.369Z,13.61
2023-05-21T05:32:24.207Z,13.68
2023-05-21T05:34:52.094Z,13.67
2023-05-21T05:37:19.753Z,13.70
2023-05-21T05:39:47.392Z,13.74
2023-05-21T05:42:15.123Z,13.75
2023-05-21T05:44:42.787Z,13.70
2023-05-21T05:47:11.121Z,13.72
2023-05-21T05:49:40.737Z,13.69
2023-05-21T05:52:08.504Z,13.66
2023-05-21T05:54:36.094Z,13.68
2023-05-21T05:57:03.916Z,13.71
2023-05-21T05:59:33.874Z,13.76
2023-05-21T06:02:02.396Z,13.74
2023-05-21T06:04:30.361Z,13.69
2023-05-21T06:06:59.995Z,13.73
2023-05-21T06:09:27.608Z,13.78
2023-05-21T06:11:55.240Z,13.89
2023-05-21T06:14:23.501Z,14.02
2023-05-21T06:16:51.356Z,14.19
2023-05-21T06:19:19.966Z,14.35
2023-05-21T06:21:48.287Z,14.32
2023-05-21T06:24:16.054Z,14.31
2023-05-21T06:26:43.625Z,14.28
2023-05-21T06:29:14.264Z,14.31
2023-05-21T06:31:43.971Z,14.36
2023-05-21T06:34:12.033Z,14.54
2023-05-21T06:36:39.732Z,15.16
2023-05-21T06:39:07.345Z,15.74
2023-05-21T06:41:36.054Z,16.47
2023-05-21T06:44:21.122Z,17.13
2023-05-21T06:47:04.484Z,17.44
2023-05-21T06:49:32.833Z,17.41
2023-05-21T06:52:00.530Z,17.51
2023-05-21T06:54:28.090Z,17.51
2023-05-21T06:56:56.267Z,17.37
2023-05-21T06:59:23.893Z,17.08
2023-05-21T07:01:51.462Z,16.88
2023-05-21T07:04:19.089Z,16.57
2023-05-21T07:06:46.919Z,16.42
2023-05-21T07:09:14.667Z,16.21
2023-05-21T07:11:43.525Z,16.08
2023-05-21T07:14:11.792Z,16.03
2023-05-21T07:16:39.771Z,16.03
2023-05-21T07:19:08.385Z,16.22
2023-05-21T07:21:36.195Z,16.31
2023-05-21T07:24:40.548Z,16.54
2023-05-21T07:27:17.736Z,16.50
2023-05-21T07:29:52.935Z,16.66
2023-05-21T07:32:22.306Z,16.94
2023-05-21T07:34:50.831Z,16.93
2023-05-21T07:37:20.824Z,16.63
2023-05-21T07:39:48.485Z,16.44
2023-05-21T07:42:16.362Z,16.19
2023-05-21T07:44:44.348Z,15.99
2023-05-21T07:47:12.030Z,15.75
2023-05-21T07:49:39.850Z,15.73
2023-05-21T07:52:08.427Z,15.69
2023-05-21T07:54:36.209Z,15.81
2023-05-21T07:57:04.152Z,16.27
2023-05-21T07:59:56.978Z,18.03
2023-05-21T08:02:25.172Z,19.58
2023-05-21T08:04:55.247Z,19.82
2023-05-21T08:07:23.161Z,19.57
2023-05-21T08:09:51.794Z,19.24
2023-05-21T08:12:19.881Z,19.31
2023-05-21T08:14:47.734Z,19.76
2023-05-21T08:17:16.964Z,19.96
2023-05-21T08:19:44.928Z,20.79
2023-05-21T08:22:12.854Z,22.13
2023-05-21T08:24:45.237Z,22.06
2023-05-21T08:27:15.313Z,21.42
2023-05-21T08:29:43.771Z,20.90
2023-05-21T08:32:11.809Z,21.51
2023-05-21T08:34:39.467Z,22.63
2023-05-21T08:37:18.892Z,22.53
2023-05-21T08:40:15.169Z,21.65
2023-05-21T08:42:46.991Z,20.75
2023-05-21T08:45:23.754Z,20.18
2023-05-21T08:47:58.727Z,19.93
2023-05-21T08:50:31.775Z,19.91
2023-05-21T08:53:07.486Z,20.94
2023-05-21T08:55:43.932Z,21.21
2023-05-21T08:58:13.784Z,21.95
2023-05-21T09:00:42.825Z,22.26
2023-05-21T09:03:13.996Z,21.80
2023-05-21T09:05:44.866Z,21.68
2023-05-21T09:08:27.778Z,22.22
2023-05-21T09:11:03.530Z,21.95
2023-05-21T09:13:47.560Z,21.88
2023-05-21T09:16:22.944Z,21.22
2023-05-21T09:18:51.264Z,20.60
2023-05-21T09:21:31.951Z,19.97
2023-05-21T09:24:14.365Z,19.46
2023-05-21T09:26:44.077Z,19.13
2023-05-21T09:29:13.577Z,18.89
2023-05-21T09:31:45.417Z,19.51
2023-05-21T09:34:14.739Z,20.78
2023-05-21T09:36:44.214Z,20.96
2023-05-21T09:39:16.678Z,20.57
2023-05-21T09:41:45.434Z,20.04
2023-05-21T09:44:13.664Z,19.56
2023-05-21T09:46:42.253Z,19.12
2023-05-21T09:49:31.348Z,18.89
2023-05-21T09:52:00.932Z,18.47
2023-05-21T09:54:33.990Z,18.41
2023-05-21T09:57:04.913Z,18.28
2023-05-21T09:59:37.115Z,18.18
2023-05-21T10:02:24.093Z,18.12
2023-05-21T10:04:54.486Z,17.86
2023-05-21T10:07:26.248Z,17.75
2023-05-21T10:09:58.186Z,17.66
2023-05-21T10:12:30.520Z,17.54
2023-05-21T10:15:04.098Z,17.42
2023-05-21T10:17:36.636Z,17.37
2023-05-21T10:20:06.110Z,17.60
2023-05-21T10:22:35.095Z,17.88
2023-05-21T10:25:03.979Z,17.97
2023-05-21T10:27:34.571Z,18.61
2023-05-21T10:30:04.068Z,19.85
2023-05-21T10:32:34.157Z,20.89
2023-05-21T10:35:02.913Z,22.64
2023-05-21T10:37:33.400Z,25.05
2023-05-21T10:40:01.565Z,26.49
2023-05-21T10:42:31.682Z,26.28
2023-05-21T10:45:02.233Z,25.49
2023-05-21T10:47:35.029Z,24.71
2023-05-21T10:50:29.968Z,25.42
2023-05-21T10:53:29.100Z,26.52
2023-05-21T10:56:23.122Z,27.84
2023-05-21T10:59:09.161Z,28.68
2023-05-21T11:01:38.694Z,29.51
2023-05-21T11:04:06.837Z,30.06
2023-05-21T11:06:34.618Z,30.66
2023-05-21T11:09:12.384Z,31.25
2023-05-21T11:11:48.738Z,31.63
2023-05-21T11:14:36.810Z,32.05
2023-05-21T11:17:11.601Z,30.15
2023-05-21T11:19:41.536Z,27.64
2023-05-21T11:22:21.723Z,27.14
2023-05-21T11:24:52.785Z,26.11
2023-05-21T11:27:36.450Z,24.74
2023-05-21T11:30:14.671Z,24.36
2023-05-21T11:33:16.504Z,24.65
2023-05-21T11:35:50.191Z,25.13
2023-05-21T11:38:18.283Z,25.50
2023-05-21T11:40:55.683Z,25.04
2023-05-21T11:43:23.665Z,24.16
2023-05-21T11:45:53.383Z,25.09
2023-05-21T11:48:27.300Z,26.05
2023-05-21T11:50:55.745Z,26.29
2023-05-21T11:53:23.439Z,25.34
2023-05-21T11:55:57.448Z,24.53
2023-05-21T11:58:25.860Z,23.65
2023-05-21T12:00:53.504Z,23.19
2023-05-21T12:03:27.005Z,23.01
2023-05-21T12:05:55.343Z,22.30
2023-05-21T12:08:27.246Z,21.30
2023-05-21T12:11:03.900Z,20.54
2023-05-21T12:13:32.263Z,20.33
2023-05-21T12:16:00.089Z,19.52
2023-05-21T12:18:28.108Z,19.19
2023-05-21T12:20:56.005Z,18.93
2023-05-21T12:23:26.574Z,18.62
2023-05-21T12:25:54.429Z,18.40
2023-05-21T12:28:22.871Z,18.10
2023-05-21T12:30:51.187Z,18.00
2023-05-21T12:33:19.118Z,17.95
2023-05-21T12:35:50.348Z,18.04
2023-05-21T12:38:18.446Z,17.99
2023-05-21T12:40:46.120Z,18.01
2023-05-21T12:43:13.955Z,17.89
2023-05-21T12:45:46.830Z,18.03
2023-05-21T12:48:17.626Z,18.04
2023-05-21T12:50:46.378Z,18.02
2023-05-21T12:53:15.526Z,18.06
2023-05-21T12:55:44.097Z,18.16
2023-05-21T12:58:14.306Z,18.17
2023-05-21T13:00:43.493Z,18.36
2023-05-21T13:03:11.450Z,18.40
2023-05-21T13:05:41.786Z,18.58
2023-05-21T13:08:10.793Z,18.66
2023-05-21T13:10:39.264Z,18.66
2023-05-21T13:13:07.093Z,18.65
2023-05-21T13:15:34.760Z,18.51
2023-05-21T13:18:02.951Z,18.57
2023-05-21T13:20:30.686Z,18.75
2023-05-21T13:22:58.574Z,18.90
2023-05-21T13:25:30.199Z,19.07
2023-05-21T13:28:01.758Z,19.24
2023-05-21T13:30:29.827Z,19.38
2023-05-21T13:32:57.496Z,19.29
2023-05-21T13:35:25.412Z,19.07
2023-05-21T13:37:53.124Z,18.72
2023-05-21T13:40:22.472Z,18.39
2023-05-21T13:42:50.578Z,18.25
2023-05-21T13:45:19.643Z,18.10
2023-05-21T13:47:48.415Z,18.05
2023-05-21T13:50:16.816Z,18.07
2023-05-21T13:52:44.731Z,18.24
2023-05-21T13:55:12.821Z,18.26
2023-05-21T13:57:40.839Z,18.35
2023-05-21T14:00:10.691Z,18.27
2023-05-21T14:02:38.553Z,18.34
2023-05-21T14:05:07.545Z,18.27
2023-05-21T14:07:35.160Z,18.37
2023-05-21T14:10:03.101Z,18.41
2023-05-21T14:12:33.566Z,18.47
2023-05-21T14:15:01.678Z,18.53
2023-05-21T14:17:33.658Z,18.47
2023-05-21T14:20:01.352Z,18.45
2023-05-21T14:22:33.021Z,18.35
2023-05-21T14:25:01.113Z,18.26
2023-05-21T14:27:29.090Z,18.09
2023-05-21T14:29:56.767Z,17.96
2023-05-21T14:32:24.569Z,17.78
2023-05-21T14:34:52.559Z,17.67
2023-05-21T14:37:20.456Z,17.70
2023-05-21T14:39:48.460Z,17.73
2023-05-21T14:42:16.227Z,17.92
2023-05-21T14:44:43.993Z,18.04
2023-05-21T14:47:11.734Z,18.12
2023-05-21T14:49:39.440Z,18.20
2023-05-21T14:52:07.335Z,18.38
2023-05-21T14:54:35.104Z,18.54
2023-05-21T14:57:03.024Z,18.66
2023-05-21T14:59:30.751Z,18.56
2023-05-21T15:01:58.710Z,18.54
2023-05-21T15:04:27.063Z,18.40
2023-05-21T15:06:54.950Z,18.20
2023-05-21T15:09:22.598Z,18.10
2023-05-21T15:11:52.751Z,17.97
2023-05-21T15:14:21.103Z,17.87
2023-05-21T15:16:49.114Z,17.73
2023-05-21T15:19:16.932Z,17.65
2023-05-21T15:21:44.855Z,17.45
2023-05-21T15:24:12.620Z,17.43
2023-05-21T15:26:40.394Z,17.36
2023-05-21T15:29:08.080Z,17.32
2023-05-21T15:31:36.121Z,17.33
2023-05-21T15:34:04.152Z,17.31
2023-05-21T15:36:31.995Z,17.27
2023-05-21T15:39:03.671Z,17.22
2023-05-21T15:41:36.460Z,17.29
2023-05-21T15:44:04.764Z,17.36
2023-05-21T15:46:32.424Z,17.33
2023-05-21T15:49:00.230Z,17.34
2023-05-21T15:51:28.126Z,17.34
2023-05-21T15:53:56.093Z,17.30
2023-05-21T15:56:23.776Z,17.32
2023-05-21T15:58:51.558Z,17.23
2023-05-21T16:01:19.263Z,17.21
2023-05-21T16:03:47.217Z,17.13
2023-05-21T16:06:14.900Z,17.13
2023-05-21T16:08:42.942Z,17.14
2023-05-21T16:11:10.688Z,17.04
2023-05-21T16:13:38.832Z,17.01
2023-05-21T16:16:08.789Z,16.98
2023-05-21T16:18:37.833Z,16.94
2023-05-21T16:21:05.974Z,16.91
2023-05-21T16:23:34.346Z,16.92
2023-05-21T16:26:01.989Z,16.91
2023-05-21T16:28:30.375Z,16.90
2023-05-21T16:30:57.989Z,16.81
2023-05-21T16:33:25.931Z,16.81
2023-05-21T16:35:54.532Z,16.89
2023-05-21T16:38:22.911Z,16.79
2023-05-21T16:40:50.636Z,16.75
2023-05-21T16:43:18.272Z,16.75
2023-05-21T16:45:46.894Z,16.70
2023-05-21T16:48:15.245Z,16.67
2023-05-21T16:50:43.277Z,16.52
2023-05-21T16:53:12.184Z,16.49
2023-05-21T16:55:40.427Z,16.45
2023-05-21T16:58:09.459Z,16.32
2023-05-21T17:00:37.775Z,16.30
2023-05-21T17:03:05.790Z,16.16
2023-05-21T17:05:33.665Z,16.18
2023-05-21T17:08:01.402Z,16.12
2023-05-21T17:10:30.156Z,16.04
2023-05-21T17:12:59.880Z,16.03
2023-05-21T17:15:29.656Z,15.99
2023-05-21T17:17:57.592Z,15.87
2023-05-21T17:20:25.913Z,15.91
2023-05-21T17:22:53.675Z,15.79
2023-05-21T17:25:21.578Z,15.87
2023-05-21T17:27:49.405Z,15.79
2023-05-21T17:30:17.260Z,15.73
2023-05-21T17:32:44.933Z,15.71
2023-05-21T17:35:12.704Z,15.67
2023-05-21T17:37:41.049Z,15.61
2023-05-21T17:40:09.661Z,15.56
2023-05-21T17:42:37.433Z,15.54
2023-05-21T17:45:05.738Z,15.51
2023-05-21T17:47:34.692Z,15.47
2023-05-21T17:50:02.647Z,15.30
2023-05-21T17:52:31.781Z,15.40
2023-05-21T17:54:59.517Z,15.39
2023-05-21T17:57:27.465Z,15.33
2023-05-21T17:59:55.621Z,15.28
2023-05-21T18:02:23.659Z,15.27
2023-05-21T18:04:51.243Z,15.13
2023-05-21T18:07:18.890Z,15.24
2023-05-21T18:09:46.472Z,15.22
2023-05-21T18:12:14.147Z,15.16
2023-05-21T18:14:41.742Z,15.12
2023-05-21T18:17:09.595Z,15.13
2023-05-21T18:19:37.366Z,15.12
2023-05-21T18:22:05.350Z,15.11
2023-05-21T18:24:33.220Z,15.08
2023-05-21T18:27:00.943Z,15.06
2023-05-21T18:29:28.588Z,15.05
2023-05-21T18:31:56.598Z,14.95
2023-05-21T18:34:24.531Z,14.96
2023-05-21T18:36:54.616Z,14.91
2023-05-21T18:39:24.921Z,14.97
2023-05-21T18:42:01.662Z,14.94
2023-05-21T18:44:39.702Z,14.87
2023-05-21T18:47:07.861Z,14.85
2023-05-21T18:49:36.455Z,14.89
2023-05-21T18:52:05.233Z,14.86
2023-05-21T18:54:32.959Z,14.79
2023-05-21T18:57:01.217Z,14.83
2023-05-21T18:59:29.179Z,14.78
2023-05-21T19:01:56.836Z,14.81
2023-05-21T19:04:24.570Z,14.80
2023-05-21T19:06:52.291Z,14.69
2023-05-21T19:09:19.852Z,14.73
2023-05-21T19:11:47.563Z,14.71
2023-05-21T19:14:15.257Z,14.64
2023-05-21T19:16:43.194Z,14.57
2023-05-21T19:19:11.264Z,14.63
2023-05-21T19:21:39.317Z,14.56
2023-05-21T19:24:07.302Z,14.56
2023-05-21T19:26:35.151Z,14.54
2023-05-21T19:29:02.784Z,14.52
2023-05-21T19:31:30.662Z,14.51
2023-05-21T19:33:58.315Z,14.52
2023-05-21T19:36:26.876Z,14.51
2023-05-21T19:38:58.900Z,14.48
2023-05-21T19:41:26.590Z,14.47
2023-05-21T19:43:54.194Z,14.45
2023-05-21T19:46:22.103Z,14.43
2023-05-21T19:48:51.055Z,14.44
2023-05-21T19:51:18.979Z,14.32
2023-05-21T19:53:46.641Z,14.40
2023-05-21T19:56:14.506Z,14.37
2023-05-21T19:58:46.956Z,14.37
2023-05-21T20:01:18.989Z,14.35
2023-05-21T20:03:46.761Z,14.34
2023-05-21T20:06:16.295Z,14.28
2023-05-21T20:08:44.096Z,14.25
2023-05-21T20:11:11.745Z,14.20
2023-05-21T20:13:40.816Z,14.09
2023-05-21T20:16:08.513Z,14.08
2023-05-21T20:18:36.262Z,14.11
2023-05-21T20:21:06.379Z,14.05
2023-05-21T20:23:34.287Z,14.11
2023-05-21T20:26:01.970Z,14.10
2023-05-21T20:28:29.727Z,14.07
2023-05-21T20:31:00.867Z,14.03
2023-05-21T20:33:31.457Z,13.98
2023-05-21T20:36:00.213Z,13.98
2023-05-21T20:38:28.060Z,13.96
2023-05-21T20:40:55.821Z,13.87
2023-05-21T20:43:24.630Z,13.95
2023-05-21T20:46:01.389Z,13.91
2023-05-21T20:48:29.920Z,13.90
2023-05-21T20:50:58.549Z,13.83
2023-05-21T20:53:26.866Z,13.86
2023-05-21T20:55:54.894Z,13.86
2023-05-21T20:58:24.119Z,13.85
2023-05-21T21:00:51.955Z,13.87
2023-05-21T21:03:21.826Z,13.88
2023-05-21T21:05:49.834Z,13.93
2023-05-21T21:08:17.656Z,13.87
2023-05-21T21:10:47.104Z,13.95
2023-05-21T21:13:15.547Z,13.90
2023-05-21T21:15:44.116Z,13.98
2023-05-21T21:18:14.648Z,13.98
2023-05-21T21:20:42.902Z,13.86
2023-05-21T21:23:10.720Z,13.97
2023-05-21T21:25:38.534Z,13.97
2023-05-21T21:28:07.324Z,13.94
2023-05-21T21:30:35.124Z,13.90
2023-05-21T21:33:03.011Z,13.84
2023-05-21T21:35:30.858Z,13.79
2023-05-21T21:37:59.086Z,13.69
2023-05-21T21:40:27.522Z,13.76
2023-05-21T21:42:56.802Z,13.70
2023-05-21T21:45:24.496Z,13.78
2023-05-21T21:47:52.119Z,13.77
2023-05-21T21:50:19.796Z,13.77
2023-05-21T21:52:49.032Z,13.75
2023-05-21T21:55:17.580Z,13.75
2023-05-21T21:57:45.292Z,13.78
2023-05-21T22:00:17.238Z,13.72
2023-05-21T22:02:48.556Z,13.79
2023-05-21T22:05:16.348Z,13.81
2023-05-21T22:07:47.292Z,13.78
2023-05-21T22:10:16.401Z,13.75
2023-05-21T22:12:44.988Z,13.77
2023-05-21T22:15:19.360Z,13.77
2023-05-21T22:17:48.736Z,13.68
2023-05-21T22:20:17.850Z,13.71
2023-05-21T22:22:46.919Z,13.67
2023-05-21T22:25:14.729Z,13.68
2023-05-21T22:27:43.341Z,13.60
2023-05-21T22:30:11.671Z,13.66
2023-05-21T22:32:39.691Z,13.64
2023-05-21T22:35:08.549Z,13.61
2023-05-21T22:37:37.507Z,13.56
2023-05-21T22:40:09.369Z,13.58
2023-05-21T22:42:37.408Z,13.58
2023-05-21T22:45:05.965Z,13.49
2023-05-21T22:47:37.281Z,13.57
2023-05-21T22:50:07.340Z,13.56
2023-05-21T22:52:35.320Z,13.56
2023-05-21T22:55:03.589Z,13.52
2023-05-21T22:57:31.466Z,13.54
2023-05-21T22:59:59.229Z,13.41
2023-05-21T23:02:27.006Z,13.40
2023-05-21T23:04:54.705Z,13.35
2023-05-21T23:07:22.444Z,13.35
2023-05-21T23:09:51.916Z,13.32
2023-05-21T23:12:19.922Z,13.18
2023-05-21T23:14:49.698Z,13.22
2023-05-21T23:17:17.477Z,13.19
2023-05-21T23:19:45.148Z,13.16
2023-05-21T23:22:12.865Z,13.15
2023-05-21T23:24:40.609Z,13.06
2023-05-21T23:27:08.398Z,13.15
2023-05-21T23:29:36.263Z,13.18
2023-05-21T23:32:05.253Z,13.22
2023-05-21T23:34:33.177Z,13.25
2023-05-21T23:37:00.974Z,13.27
2023-05-21T23:39:28.951Z,13.25
2023-05-21T23:41:57.028Z,13.26
2023-05-21T23:44:24.929Z,13.27
2023-05-21T23:46:52.637Z,13.28
2023-05-21T23:49:20.440Z,13.28
2023-05-21T23:51:50.826Z,13.33
2023-05-21T23:54:18.784Z,13.34
2023-05-21T23:56:46.819Z,13.37
2023-05-21T23:59:16.284Z,13.36
